sensor_id;sensor_type;location;lat;lon;timestamp;pressure;altitude;pressure_sealevel;temperature;humidity
63399;BME280;49533;-34.520;150.798;2022-12-20T00:01:09;101215.47;;;17.93;52.59
63399;BME280;49533;-34.520;150.798;2022-12-20T00:03:36;101209.28;;;17.96;52.39
63399;BME280;49533;-34.520;150.798;2022-12-20T00:06:05;101218.00;;;17.98;52.35
63399;BME280;49533;-34.520;150.798;2022-12-20T00:08:33;101213.78;;;18.00;52.30
63399;BME280;49533;-34.520;150.798;2022-12-20T00:11:04;101217.41;;;18.04;52.34
63399;BME280;49533;-34.520;150.798;2022-12-20T00:13:32;101207.34;;;18.09;52.27
63399;BME280;49533;-34.520;150.798;2022-12-20T00:16:14;101205.88;;;18.11;52.41
63399;BME280;49533;-34.520;150.798;2022-12-20T00:18:42;101209.56;;;18.15;52.45
63399;BME280;49533;-34.520;150.798;2022-12-20T00:21:13;101212.41;;;18.19;52.40
63399;BME280;49533;-34.520;150.798;2022-12-20T00:23:41;101210.13;;;18.21;52.53
63399;BME280;49533;-34.520;150.798;2022-12-20T00:26:12;101215.75;;;18.24;52.43
63399;BME280;49533;-34.520;150.798;2022-12-20T00:28:40;101206.38;;;18.25;52.42
63399;BME280;49533;-34.520;150.798;2022-12-20T00:31:09;101214.25;;;18.27;52.59
63399;BME280;49533;-34.520;150.798;2022-12-20T00:33:38;101210.72;;;18.27;52.57
63399;BME280;49533;-34.520;150.798;2022-12-20T00:36:06;101214.16;;;18.23;52.78
63399;BME280;49533;-34.520;150.798;2022-12-20T00:38:35;101203.63;;;18.25;52.72
63399;BME280;49533;-34.520;150.798;2022-12-20T00:41:05;101211.88;;;18.25;52.77
63399;BME280;49533;-34.520;150.798;2022-12-20T00:43:34;101214.16;;;18.23;52.71
63399;BME280;49533;-34.520;150.798;2022-12-20T00:46:01;101221.72;;;18.27;52.61
63399;BME280;49533;-34.520;150.798;2022-12-20T00:48:29;101216.53;;;18.25;52.71
63399;BME280;49533;-34.520;150.798;2022-12-20T00:50:59;101213.47;;;18.27;52.76
63399;BME280;49533;-34.520;150.798;2022-12-20T00:53:28;101224.94;;;18.29;52.71
63399;BME280;49533;-34.520;150.798;2022-12-20T00:55:55;101225.50;;;18.34;52.50
63399;BME280;49533;-34.520;150.798;2022-12-20T00:58:23;101217.56;;;18.33;52.74
63399;BME280;49533;-34.520;150.798;2022-12-20T01:00:51;101215.06;;;18.40;52.49
63399;BME280;49533;-34.520;150.798;2022-12-20T01:03:18;101209.09;;;18.38;52.40
63399;BME280;49533;-34.520;150.798;2022-12-20T01:05:53;101215.53;;;18.42;52.31
63399;BME280;49533;-34.520;150.798;2022-12-20T01:08:22;101199.81;;;18.42;52.44
63399;BME280;49533;-34.520;150.798;2022-12-20T01:11:02;101201.53;;;18.47;52.31
63399;BME280;49533;-34.520;150.798;2022-12-20T01:13:32;101193.06;;;18.52;52.15
63399;BME280;49533;-34.520;150.798;2022-12-20T01:16:11;101198.34;;;18.57;52.12
63399;BME280;49533;-34.520;150.798;2022-12-20T01:18:38;101192.38;;;18.55;52.10
63399;BME280;49533;-34.520;150.798;2022-12-20T01:21:10;101188.47;;;18.56;52.15
63399;BME280;49533;-34.520;150.798;2022-12-20T01:23:38;101181.81;;;18.57;52.29
63399;BME280;49533;-34.520;150.798;2022-12-20T01:26:09;101172.88;;;18.60;52.19
63399;BME280;49533;-34.520;150.798;2022-12-20T01:28:38;101169.78;;;18.62;52.10
63399;BME280;49533;-34.520;150.798;2022-12-20T01:31:09;101169.09;;;18.65;52.17
63399;BME280;49533;-34.520;150.798;2022-12-20T01:33:37;101158.06;;;18.65;52.14
63399;BME280;49533;-34.520;150.798;2022-12-20T01:36:06;101159.66;;;18.66;52.25
63399;BME280;49533;-34.520;150.798;2022-12-20T01:38:34;101158.44;;;18.76;52.47
63399;BME280;49533;-34.520;150.798;2022-12-20T01:41:02;101148.56;;;18.87;52.54
63399;BME280;49533;-34.520;150.798;2022-12-20T01:43:47;101140.34;;;19.03;52.40
63399;BME280;49533;-34.520;150.798;2022-12-20T01:46:16;101137.56;;;19.15;52.13
63399;BME280;49533;-34.520;150.798;2022-12-20T01:48:55;101130.38;;;19.26;51.97
63399;BME280;49533;-34.520;150.798;2022-12-20T01:51:25;101127.72;;;19.30;51.99
63399;BME280;49533;-34.520;150.798;2022-12-20T01:54:00;101126.41;;;19.40;51.77
63399;BME280;49533;-34.520;150.798;2022-12-20T01:56:30;101125.03;;;19.46;51.69
63399;BME280;49533;-34.520;150.798;2022-12-20T01:58:57;101130.53;;;19.46;51.66
63399;BME280;49533;-34.520;150.798;2022-12-20T02:01:25;101128.66;;;19.50;51.63
63399;BME280;49533;-34.520;150.798;2022-12-20T02:03:53;101124.50;;;19.56;51.44
63399;BME280;49533;-34.520;150.798;2022-12-20T02:06:24;101129.03;;;19.64;51.20
63399;BME280;49533;-34.520;150.798;2022-12-20T02:08:53;101127.19;;;19.68;50.75
63399;BME280;49533;-34.520;150.798;2022-12-20T02:11:59;101126.50;;;19.71;50.94
63399;BME280;49533;-34.520;150.798;2022-12-20T02:14:48;101126.25;;;19.76;51.05
63399;BME280;49533;-34.520;150.798;2022-12-20T02:17:44;101121.97;;;19.79;50.76
63399;BME280;49533;-34.520;150.798;2022-12-20T02:20:33;101118.84;;;19.81;50.50
63399;BME280;49533;-34.520;150.798;2022-12-20T02:23:36;101115.38;;;19.84;50.08
63399;BME280;49533;-34.520;150.798;2022-12-20T02:26:33;101112.28;;;19.85;49.84
63399;BME280;49533;-34.520;150.798;2022-12-20T02:29:25;101104.78;;;19.86;50.10
63399;BME280;49533;-34.520;150.798;2022-12-20T02:32:07;101106.50;;;19.90;49.60
63399;BME280;49533;-34.520;150.798;2022-12-20T02:34:36;101101.88;;;19.94;49.33
63399;BME280;49533;-34.520;150.798;2022-12-20T02:37:05;101089.69;;;19.95;49.13
63399;BME280;49533;-34.520;150.798;2022-12-20T02:39:33;101093.69;;;19.98;49.40
63399;BME280;49533;-34.520;150.798;2022-12-20T02:42:08;101088.22;;;20.02;48.92
63399;BME280;49533;-34.520;150.798;2022-12-20T02:44:40;101089.47;;;20.04;48.90
63399;BME280;49533;-34.520;150.798;2022-12-20T02:47:26;101083.28;;;20.07;49.02
63399;BME280;49533;-34.520;150.798;2022-12-20T02:49:56;101083.34;;;20.11;48.92
63399;BME280;49533;-34.520;150.798;2022-12-20T02:52:25;101074.72;;;20.12;48.71
63399;BME280;49533;-34.520;150.798;2022-12-20T02:54:57;101082.63;;;20.14;48.46
63399;BME280;49533;-34.520;150.798;2022-12-20T03:00:19;101064.19;;;20.18;48.39
63399;BME280;49533;-34.520;150.798;2022-12-20T03:02:48;101073.28;;;20.18;48.38
63399;BME280;49533;-34.520;150.798;2022-12-20T03:05:28;101077.22;;;20.17;48.50
63399;BME280;49533;-34.520;150.798;2022-12-20T03:07:55;101063.47;;;20.21;48.16
63399;BME280;49533;-34.520;150.798;2022-12-20T03:10:22;101064.78;;;20.27;48.29
63399;BME280;49533;-34.520;150.798;2022-12-20T03:12:50;101062.91;;;20.31;48.01
63399;BME280;49533;-34.520;150.798;2022-12-20T03:15:17;101060.16;;;20.31;48.00
63399;BME280;49533;-34.520;150.798;2022-12-20T03:17:45;101067.28;;;20.32;47.92
63399;BME280;49533;-34.520;150.798;2022-12-20T03:20:12;101057.84;;;20.33;47.83
63399;BME280;49533;-34.520;150.798;2022-12-20T03:22:39;101053.56;;;20.36;47.64
63399;BME280;49533;-34.520;150.798;2022-12-20T03:25:07;101058.34;;;20.39;47.66
63399;BME280;49533;-34.520;150.798;2022-12-20T03:27:34;101042.25;;;20.41;47.91
63399;BME280;49533;-34.520;150.798;2022-12-20T03:30:01;101041.50;;;20.44;47.61
63399;BME280;49533;-34.520;150.798;2022-12-20T03:32:28;101047.03;;;20.44;47.87
63399;BME280;49533;-34.520;150.798;2022-12-20T03:34:55;101044.72;;;20.46;47.65
63399;BME280;49533;-34.520;150.798;2022-12-20T03:37:22;101038.81;;;20.48;47.43
63399;BME280;49533;-34.520;150.798;2022-12-20T03:39:49;101036.06;;;20.48;47.65
63399;BME280;49533;-34.520;150.798;2022-12-20T03:42:17;101033.75;;;20.50;47.58
63399;BME280;49533;-34.520;150.798;2022-12-20T03:44:44;101030.63;;;20.51;47.39
63399;BME280;49533;-34.520;150.798;2022-12-20T03:47:11;101029.09;;;20.54;47.39
63399;BME280;49533;-34.520;150.798;2022-12-20T03:49:39;101025.22;;;20.55;47.51
63399;BME280;49533;-34.520;150.798;2022-12-20T03:52:06;101013.38;;;20.54;47.53
63399;BME280;49533;-34.520;150.798;2022-12-20T03:54:33;101020.56;;;20.59;47.44
63399;BME280;49533;-34.520;150.798;2022-12-20T03:57:00;101024.91;;;20.60;47.46
63399;BME280;49533;-34.520;150.798;2022-12-20T03:59:27;101028.56;;;20.64;47.74
63399;BME280;49533;-34.520;150.798;2022-12-20T04:01:54;101024.72;;;20.69;47.30
63399;BME280;49533;-34.520;150.798;2022-12-20T04:04:22;101020.72;;;20.66;47.65
63399;BME280;49533;-34.520;150.798;2022-12-20T04:06:49;101015.25;;;20.70;47.40
63399;BME280;49533;-34.520;150.798;2022-12-20T04:09:16;101018.03;;;20.70;47.49
63399;BME280;49533;-34.520;150.798;2022-12-20T04:11:43;101014.47;;;20.69;47.48
63399;BME280;49533;-34.520;150.798;2022-12-20T04:14:10;101012.50;;;20.70;47.25
63399;BME280;49533;-34.520;150.798;2022-12-20T04:16:37;101005.00;;;20.70;47.39
63399;BME280;49533;-34.520;150.798;2022-12-20T04:19:05;101007.41;;;20.72;47.33
63399;BME280;49533;-34.520;150.798;2022-12-20T04:21:33;101003.91;;;20.75;47.69
63399;BME280;49533;-34.520;150.798;2022-12-20T04:24:02;101002.75;;;20.76;47.76
63399;BME280;49533;-34.520;150.798;2022-12-20T04:26:30;100999.19;;;20.75;47.71
63399;BME280;49533;-34.520;150.798;2022-12-20T04:28:57;101005.88;;;20.74;47.84
63399;BME280;49533;-34.520;150.798;2022-12-20T04:31:24;101009.09;;;20.76;48.22
63399;BME280;49533;-34.520;150.798;2022-12-20T04:33:52;101005.59;;;20.79;48.05
63399;BME280;49533;-34.520;150.798;2022-12-20T04:36:19;101005.59;;;20.79;47.98
63399;BME280;49533;-34.520;150.798;2022-12-20T04:38:46;101000.50;;;20.81;48.27
63399;BME280;49533;-34.520;150.798;2022-12-20T04:41:13;100995.78;;;20.82;48.18
63399;BME280;49533;-34.520;150.798;2022-12-20T04:43:50;101004.50;;;20.84;48.23
63399;BME280;49533;-34.520;150.798;2022-12-20T04:46:18;100981.59;;;20.83;48.74
63399;BME280;49533;-34.520;150.798;2022-12-20T04:48:45;100989.53;;;20.85;48.33
63399;BME280;49533;-34.520;150.798;2022-12-20T04:51:13;100984.78;;;20.85;48.32
63399;BME280;49533;-34.520;150.798;2022-12-20T04:53:40;100988.72;;;20.84;48.24
63399;BME280;49533;-34.520;150.798;2022-12-20T04:56:19;100982.41;;;20.84;48.32
63399;BME280;49533;-34.520;150.798;2022-12-20T04:58:48;100987.94;;;20.84;48.39
63399;BME280;49533;-34.520;150.798;2022-12-20T05:01:16;100982.41;;;20.84;48.39
63399;BME280;49533;-34.520;150.798;2022-12-20T05:03:44;100978.47;;;20.85;48.45
63399;BME280;49533;-34.520;150.798;2022-12-20T05:06:11;100986.41;;;20.87;48.32
63399;BME280;49533;-34.520;150.798;2022-12-20T05:08:38;100975.34;;;20.87;48.24
63399;BME280;49533;-34.520;150.798;2022-12-20T05:11:06;100983.63;;;20.87;48.14
63399;BME280;49533;-34.520;150.798;2022-12-20T05:13:34;100972.59;;;20.87;48.40
63399;BME280;49533;-34.520;150.798;2022-12-20T05:16:02;100992.34;;;20.89;48.08
63399;BME280;49533;-34.520;150.798;2022-12-20T05:18:29;100986.03;;;20.88;48.00
63399;BME280;49533;-34.520;150.798;2022-12-20T05:20:58;100978.13;;;20.67;47.07
63399;BME280;49533;-34.520;150.798;2022-12-20T05:23:37;100985.69;;;20.51;47.07
63399;BME280;49533;-34.520;150.798;2022-12-20T05:26:16;100986.38;;;20.48;47.57
63399;BME280;49533;-34.520;150.798;2022-12-20T05:28:43;100982.53;;;20.52;48.02
63399;BME280;49533;-34.520;150.798;2022-12-20T05:31:11;100990.03;;;20.52;47.26
63399;BME280;49533;-34.520;150.798;2022-12-20T05:33:38;100980.41;;;20.61;47.49
63399;BME280;49533;-34.520;150.798;2022-12-20T05:36:05;100980.53;;;20.69;47.65
63399;BME280;49533;-34.520;150.798;2022-12-20T05:38:32;100983.00;;;20.74;47.06
63399;BME280;49533;-34.520;150.798;2022-12-20T05:40:59;100987.34;;;20.75;47.20
63399;BME280;49533;-34.520;150.798;2022-12-20T05:43:26;100979.84;;;20.75;46.87
63399;BME280;49533;-34.520;150.798;2022-12-20T05:45:54;100970.78;;;20.75;47.23
63399;BME280;49533;-34.520;150.798;2022-12-20T05:48:21;100978.28;;;20.74;46.81
63399;BME280;49533;-34.520;150.798;2022-12-20T05:50:48;100971.06;;;20.70;46.15
63399;BME280;49533;-34.520;150.798;2022-12-20T05:53:16;100978.19;;;20.71;46.77
63399;BME280;49533;-34.520;150.798;2022-12-20T05:55:46;100974.34;;;20.75;46.48
63399;BME280;49533;-34.520;150.798;2022-12-20T05:58:14;100964.09;;;20.76;46.48
63399;BME280;49533;-34.520;150.798;2022-12-20T06:00:42;100960.97;;;20.77;46.63
63399;BME280;49533;-34.520;150.798;2022-12-20T06:03:10;100954.28;;;20.78;46.65
63399;BME280;49533;-34.520;150.798;2022-12-20T06:05:39;100951.50;;;20.78;46.45
63399;BME280;49533;-34.520;150.798;2022-12-20T06:08:07;100951.50;;;20.78;46.24
63399;BME280;49533;-34.520;150.798;2022-12-20T06:10:35;100954.72;;;20.80;46.50
63399;BME280;49533;-34.520;150.798;2022-12-20T06:13:03;100949.19;;;20.80;46.29
63399;BME280;49533;-34.520;150.798;2022-12-20T06:15:30;100946.81;;;20.79;46.47
63399;BME280;49533;-34.520;150.798;2022-12-20T06:17:58;100947.59;;;20.79;46.10
63399;BME280;49533;-34.520;150.798;2022-12-20T06:20:25;100940.91;;;20.80;46.04
63399;BME280;49533;-34.520;150.798;2022-12-20T06:22:53;100933.41;;;20.81;46.24
63399;BME280;49533;-34.520;150.798;2022-12-20T06:25:20;100938.94;;;20.81;46.08
63399;BME280;49533;-34.520;150.798;2022-12-20T06:27:48;100939.66;;;20.78;45.88
63399;BME280;49533;-34.520;150.798;2022-12-20T06:30:15;100938.88;;;20.77;45.71
63399;BME280;49533;-34.520;150.798;2022-12-20T06:32:43;100946.38;;;20.77;46.08
63399;BME280;49533;-34.520;150.798;2022-12-20T06:35:10;100940.84;;;20.77;45.75
63399;BME280;49533;-34.520;150.798;2022-12-20T06:37:38;100932.56;;;20.77;45.74
63399;BME280;49533;-34.520;150.798;2022-12-20T06:40:08;100932.56;;;20.77;45.78
63399;BME280;49533;-34.520;150.798;2022-12-20T06:42:35;100930.16;;;20.75;46.12
63399;BME280;49533;-34.520;150.798;2022-12-20T06:45:03;100928.56;;;20.74;45.70
63399;BME280;49533;-34.520;150.798;2022-12-20T06:47:31;100938.81;;;20.74;46.11
63399;BME280;49533;-34.520;150.798;2022-12-20T06:49:58;100928.94;;;20.73;45.71
63399;BME280;49533;-34.520;150.798;2022-12-20T06:52:25;100939.63;;;20.74;46.01
63399;BME280;49533;-34.520;150.798;2022-12-20T06:54:53;100945.13;;;20.74;45.93
63399;BME280;49533;-34.520;150.798;2022-12-20T06:57:20;100949.50;;;20.75;45.91
63399;BME280;49533;-34.520;150.798;2022-12-20T06:59:47;100949.88;;;20.74;45.90
63399;BME280;49533;-34.520;150.798;2022-12-20T07:02:14;100944.69;;;20.72;46.06
63399;BME280;49533;-34.520;150.798;2022-12-20T07:04:42;100953.00;;;20.72;46.01
63399;BME280;49533;-34.520;150.798;2022-12-20T07:07:10;100950.22;;;20.72;46.55
63399;BME280;49533;-34.520;150.798;2022-12-20T07:09:40;100953.00;;;20.72;46.26
63399;BME280;49533;-34.520;150.798;2022-12-20T07:12:08;100956.09;;;20.71;46.03
63399;BME280;49533;-34.520;150.798;2022-12-20T07:14:36;100955.31;;;20.70;46.34
63399;BME280;49533;-34.520;150.798;2022-12-20T07:17:04;100956.84;;;20.68;46.44
63399;BME280;49533;-34.520;150.798;2022-12-20T07:19:32;100960.34;;;20.65;46.16
63399;BME280;49533;-34.520;150.798;2022-12-20T07:21:59;100959.53;;;20.64;46.33
63399;BME280;49533;-34.520;150.798;2022-12-20T07:24:26;100961.84;;;20.62;46.25
63399;BME280;49533;-34.520;150.798;2022-12-20T07:26:53;100964.63;;;20.62;46.22
63399;BME280;49533;-34.520;150.798;2022-12-20T07:29:20;100968.91;;;20.59;46.35
63399;BME280;49533;-34.520;150.798;2022-12-20T07:31:47;100963.75;;;20.58;46.45
63399;BME280;49533;-34.520;150.798;2022-12-20T07:34:14;100975.97;;;20.57;46.46
63399;BME280;49533;-34.520;150.798;2022-12-20T07:36:42;100975.53;;;20.55;46.19
63399;BME280;49533;-34.520;150.798;2022-12-20T07:39:09;100971.63;;;20.56;46.26
63399;BME280;49533;-34.520;150.798;2022-12-20T07:41:36;100979.50;;;20.57;45.95
63399;BME280;49533;-34.520;150.798;2022-12-20T07:44:03;100978.72;;;20.57;46.24
63399;BME280;49533;-34.520;150.798;2022-12-20T07:46:31;100986.91;;;20.53;46.37
63399;BME280;49533;-34.520;150.798;2022-12-20T07:48:59;100982.91;;;20.51;46.26
63399;BME280;49533;-34.520;150.798;2022-12-20T07:51:30;100984.06;;;20.50;46.07
63399;BME280;49533;-34.520;150.798;2022-12-20T07:54:11;100989.13;;;20.48;46.41
63399;BME280;49533;-34.520;150.798;2022-12-20T07:56:43;100995.47;;;20.48;46.01
63399;BME280;49533;-34.520;150.798;2022-12-20T07:59:14;101001.34;;;20.47;46.47
63399;BME280;49533;-34.520;150.798;2022-12-20T08:01:43;101000.56;;;20.46;46.09
63399;BME280;49533;-34.520;150.798;2022-12-20T08:04:15;101001.28;;;20.43;46.45
63399;BME280;49533;-34.520;150.798;2022-12-20T08:06:43;101003.59;;;20.41;46.28
63399;BME280;49533;-34.520;150.798;2022-12-20T08:09:12;101002.00;;;20.40;46.29
63399;BME280;49533;-34.520;150.798;2022-12-20T08:11:44;101012.25;;;20.39;46.36
63399;BME280;49533;-34.520;150.798;2022-12-20T08:14:12;101009.47;;;20.39;46.28
63399;BME280;49533;-34.520;150.798;2022-12-20T08:16:40;101008.63;;;20.35;46.50
63399;BME280;49533;-34.520;150.798;2022-12-20T08:19:10;101012.97;;;20.36;46.63
63399;BME280;49533;-34.520;150.798;2022-12-20T08:21:37;101020.91;;;20.38;46.77
63399;BME280;49533;-34.520;150.798;2022-12-20T08:24:05;101027.56;;;20.37;46.51
63399;BME280;49533;-34.520;150.798;2022-12-20T08:26:38;101023.56;;;20.34;46.64
63399;BME280;49533;-34.520;150.798;2022-12-20T08:29:06;101026.31;;;20.34;46.81
63399;BME280;49533;-34.520;150.798;2022-12-20T08:31:40;101020.34;;;20.32;47.00
63399;BME280;49533;-34.520;150.798;2022-12-20T08:34:08;101023.13;;;20.32;47.00
63399;BME280;49533;-34.520;150.798;2022-12-20T08:36:35;101021.97;;;20.33;46.75
63399;BME280;49533;-34.520;150.798;2022-12-20T08:39:04;101023.50;;;20.31;47.18
63399;BME280;49533;-34.520;150.798;2022-12-20T08:41:33;101027.78;;;20.28;47.17
63399;BME280;49533;-34.520;150.798;2022-12-20T08:44:04;101031.69;;;20.27;47.32
63399;BME280;49533;-34.520;150.798;2022-12-20T08:46:31;101024.13;;;20.24;47.38
63399;BME280;49533;-34.520;150.798;2022-12-20T08:48:58;101022.53;;;20.23;47.35
63399;BME280;49533;-34.520;150.798;2022-12-20T08:51:25;101019.34;;;20.21;47.64
63399;BME280;49533;-34.520;150.798;2022-12-20T08:53:54;101020.06;;;20.18;47.81
63399;BME280;49533;-34.520;150.798;2022-12-20T08:56:21;101029.13;;;20.18;47.53
63399;BME280;49533;-34.520;150.798;2022-12-20T08:58:49;101023.63;;;20.18;47.60
63399;BME280;49533;-34.520;150.798;2022-12-20T09:01:18;101029.47;;;20.17;47.51
63399;BME280;49533;-34.520;150.798;2022-12-20T09:03:46;101023.97;;;20.17;47.99
63399;BME280;49533;-34.520;150.798;2022-12-20T09:06:17;101031.44;;;20.16;48.00
63399;BME280;49533;-34.520;150.798;2022-12-20T09:08:46;101029.47;;;20.17;48.25
63399;BME280;49533;-34.520;150.798;2022-12-20T09:11:15;101027.44;;;20.14;47.98
63399;BME280;49533;-34.520;150.798;2022-12-20T09:13:44;101032.97;;;20.14;47.84
63399;BME280;49533;-34.520;150.798;2022-12-20T09:16:15;101027.44;;;20.14;47.89
63399;BME280;49533;-34.520;150.798;2022-12-20T09:18:43;101025.06;;;20.12;48.07
63399;BME280;49533;-34.520;150.798;2022-12-20T09:21:11;101015.97;;;20.12;47.90
63399;BME280;49533;-34.520;150.798;2022-12-20T09:23:38;101018.72;;;20.12;48.15
63399;BME280;49533;-34.520;150.798;2022-12-20T09:26:07;101016.25;;;20.07;48.43
63399;BME280;49533;-34.520;150.798;2022-12-20T09:28:36;101020.19;;;20.06;48.08
63399;BME280;49533;-34.520;150.798;2022-12-20T09:31:06;101017.75;;;20.04;48.42
63399;BME280;49533;-34.520;150.798;2022-12-20T09:33:34;101023.66;;;20.03;48.31
63399;BME280;49533;-34.520;150.798;2022-12-20T09:36:03;101027.56;;;20.02;48.52
63399;BME280;49533;-34.520;150.798;2022-12-20T09:38:30;101023.22;;;20.01;48.43
63399;BME280;49533;-34.520;150.798;2022-12-20T09:41:03;101024.81;;;20.02;48.23
63399;BME280;49533;-34.520;150.798;2022-12-20T09:43:32;101031.13;;;20.02;48.42
63399;BME280;49533;-34.520;150.798;2022-12-20T09:46:01;101027.50;;;19.98;48.60
63399;BME280;49533;-34.520;150.798;2022-12-20T09:48:37;101032.94;;;19.94;48.82
63399;BME280;49533;-34.520;150.798;2022-12-20T09:54:19;101044.31;;;19.93;49.24
63399;BME280;49533;-34.520;150.798;2022-12-20T09:57:05;101047.06;;;19.93;49.08
63399;BME280;49533;-34.520;150.798;2022-12-20T09:59:38;101045.47;;;19.92;49.46
63399;BME280;49533;-34.520;150.798;2022-12-20T10:02:10;101052.50;;;19.89;49.46
63399;BME280;49533;-34.520;150.798;2022-12-20T10:04:38;101053.66;;;19.88;49.65
63399;BME280;49533;-34.520;150.798;2022-12-20T10:07:23;101057.56;;;19.87;49.94
63399;BME280;49533;-34.520;150.798;2022-12-20T10:10:08;101061.47;;;19.86;49.96
63399;BME280;49533;-34.520;150.798;2022-12-20T10:13:10;101059.88;;;19.85;50.04
63399;BME280;49533;-34.520;150.798;2022-12-20T10:15:49;101067.25;;;19.81;50.31
63399;BME280;49533;-34.520;150.798;2022-12-20T10:18:30;101064.09;;;19.79;50.29
63399;BME280;49533;-34.520;150.798;2022-12-20T10:21:18;101059.69;;;19.78;50.20
63399;BME280;49533;-34.520;150.798;2022-12-20T10:24:00;101054.91;;;19.75;50.29
63399;BME280;49533;-34.520;150.798;2022-12-20T10:26:29;101067.09;;;19.74;50.42
63399;BME280;49533;-34.520;150.798;2022-12-20T10:28:58;101062.28;;;19.71;50.46
63399;BME280;49533;-34.520;150.798;2022-12-20T10:31:26;101075.72;;;19.72;50.42
63399;BME280;49533;-34.520;150.798;2022-12-20T10:33:53;101072.16;;;19.72;50.29
63399;BME280;49533;-34.520;150.798;2022-12-20T10:36:27;101068.97;;;19.70;50.32
63399;BME280;49533;-34.520;150.798;2022-12-20T10:38:57;101068.50;;;19.68;50.54
63399;BME280;49533;-34.520;150.798;2022-12-20T10:41:28;101072.88;;;19.69;50.19
63399;BME280;49533;-34.520;150.798;2022-12-20T10:44:03;101082.28;;;19.68;50.37
63399;BME280;49533;-34.520;150.798;2022-12-20T10:46:37;101081.38;;;19.64;50.62
63399;BME280;49533;-34.520;150.798;2022-12-20T10:49:26;101084.16;;;19.64;50.43
63399;BME280;49533;-34.520;150.798;2022-12-20T10:51:58;101087.59;;;19.61;50.72
63399;BME280;49533;-34.520;150.798;2022-12-20T10:54:31;101088.75;;;19.60;50.80
63399;BME280;49533;-34.520;150.798;2022-12-20T10:57:03;101077.28;;;19.58;50.80
63399;BME280;49533;-34.520;150.798;2022-12-20T10:59:43;101093.03;;;19.57;50.89
63399;BME280;49533;-34.520;150.798;2022-12-20T11:02:31;101090.59;;;19.55;50.90
63399;BME280;49533;-34.520;150.798;2022-12-20T11:05:09;101095.78;;;19.57;50.78
63399;BME280;49533;-34.520;150.798;2022-12-20T11:07:56;101095.69;;;19.53;50.91
63399;BME280;49533;-34.520;150.798;2022-12-20T11:10:27;101089.72;;;19.51;50.79
63399;BME280;49533;-34.520;150.798;2022-12-20T11:12:57;101091.31;;;19.52;51.00
63399;BME280;49533;-34.520;150.798;2022-12-20T11:15:28;101093.63;;;19.50;50.78
63399;BME280;49533;-34.520;150.798;2022-12-20T11:18:12;101090.78;;;19.47;51.03
63399;BME280;49533;-34.520;150.798;2022-12-20T11:20:50;101094.34;;;19.47;50.75
63399;BME280;49533;-34.520;150.798;2022-12-20T11:23:38;101086.00;;;19.44;50.86
63399;BME280;49533;-34.520;150.798;2022-12-20T11:26:28;101086.34;;;19.42;50.86
63399;BME280;49533;-34.520;150.798;2022-12-20T11:29:30;101085.19;;;19.43;50.74
63399;BME280;49533;-34.520;150.798;2022-12-20T11:32:16;101091.84;;;19.42;51.00
63399;BME280;49533;-34.520;150.798;2022-12-20T11:35:01;101081.63;;;19.43;50.74
63399;BME280;49533;-34.520;150.798;2022-12-20T11:37:42;101083.94;;;19.41;50.79
63399;BME280;49533;-34.520;150.798;2022-12-20T11:40:31;101079.56;;;19.40;50.67
63399;BME280;49533;-34.520;150.798;2022-12-20T11:43:13;101081.53;;;19.39;50.69
63399;BME280;49533;-34.520;150.798;2022-12-20T11:46:04;101074.44;;;19.38;50.62
63399;BME280;49533;-34.520;150.798;2022-12-20T11:48:55;101074.44;;;19.38;50.81
63399;BME280;49533;-34.520;150.798;2022-12-20T11:51:44;101068.00;;;19.34;50.46
63399;BME280;49533;-34.520;150.798;2022-12-20T11:54:27;101057.72;;;19.31;50.74
63399;BME280;49533;-34.520;150.798;2022-12-20T11:56:57;101061.25;;;19.31;50.37
63399;BME280;49533;-34.520;150.798;2022-12-20T11:59:44;101066.69;;;19.28;50.70
63399;BME280;49533;-34.520;150.798;2022-12-20T12:05:06;101065.31;;;19.22;50.69
63399;BME280;49533;-34.520;150.798;2022-12-20T12:07:40;101068.53;;;19.24;50.67
63399;BME280;49533;-34.520;150.798;2022-12-20T12:10:22;101063.72;;;19.21;50.78
63399;BME280;49533;-34.520;150.798;2022-12-20T12:13:02;101062.13;;;19.20;50.72
63399;BME280;49533;-34.520;150.798;2022-12-20T12:18:29;101073.84;;;19.17;50.74
63399;BME280;49533;-34.520;150.798;2022-12-20T12:21:21;101065.13;;;19.15;50.78
63399;BME280;49533;-34.520;150.798;2022-12-20T12:24:04;101058.03;;;19.14;50.76
63399;BME280;49533;-34.520;150.798;2022-12-20T12:26:35;101061.13;;;19.12;50.81
63399;BME280;49533;-34.520;150.798;2022-12-20T12:29:11;101057.13;;;19.09;50.94
63399;BME280;49533;-34.520;150.798;2022-12-20T12:31:45;101058.28;;;19.08;50.83
63399;BME280;49533;-34.520;150.798;2022-12-20T12:37:37;101052.31;;;19.06;50.90
63399;BME280;49533;-34.520;150.798;2022-12-20T12:40:30;101050.72;;;19.05;50.97
63399;BME280;49533;-34.520;150.798;2022-12-20T12:43:18;101051.88;;;19.04;50.80
63399;BME280;49533;-34.520;150.798;2022-12-20T12:45:54;101049.81;;;19.01;50.94
63399;BME280;49533;-34.520;150.798;2022-12-20T12:48:28;101052.13;;;18.99;51.01
63399;BME280;49533;-34.520;150.798;2022-12-20T12:51:00;101048.09;;;18.97;51.22
63399;BME280;49533;-34.520;150.798;2022-12-20T12:53:48;101048.94;;;18.97;51.12
63399;BME280;49533;-34.520;150.798;2022-12-20T12:56:37;101042.59;;;18.97;51.00
63399;BME280;49533;-34.520;150.798;2022-12-20T12:59:20;101046.84;;;18.94;51.09